createdAt,value
2019-02-02T00:02:02.596Z,1.50
2019-02-02T00:04:32.941Z,1.50
2019-02-02T00:07:03.264Z,1.60
2019-02-02T00:09:33.579Z,1.50
2019-02-02T00:12:03.981Z,1.60
2019-02-02T00:14:34.307Z,1.60
2019-02-02T00:17:05.178Z,1.60
2019-02-02T00:19:35.504Z,1.60
2019-02-02T00:22:07.462Z,1.60
2019-02-02T00:24:37.776Z,1.60
2019-02-02T00:29:37.809Z,1.60
2019-02-02T00:34:37.736Z,1.60
2019-02-02T00:39:37.656Z,1.70
2019-02-02T00:42:08.010Z,1.60
2019-02-02T00:44:38.336Z,1.70
2019-02-02T00:49:38.252Z,1.60
2019-02-02T00:54:38.199Z,1.70
2019-02-02T00:59:38.230Z,1.70
2019-02-02T01:04:38.154Z,1.70
2019-02-02T01:09:38.088Z,5.30
2019-02-02T01:12:08.424Z,1.70
2019-02-02T01:14:38.740Z,1.80
2019-02-02T01:17:09.105Z,1.70
2019-02-02T01:22:09.225Z,1.70
2019-02-02T01:24:39.552Z,1.80
2019-02-02T01:32:09.077Z,1.80
2019-02-02T01:34:39.392Z,1.80
2019-02-02T01:39:39.347Z,1.80
2019-02-02T01:44:39.275Z,1.80
2019-02-02T01:49:50.704Z,1.80
2019-02-02T01:54:50.652Z,1.70
2019-02-02T01:59:50.632Z,1.80
2019-02-02T02:04:50.596Z,1.70
2019-02-02T02:09:50.591Z,1.80
2019-02-02T02:14:50.533Z,1.80
2019-02-02T02:19:50.524Z,1.80
2019-02-02T02:24:50.552Z,1.80
2019-02-02T02:29:50.505Z,1.90
2019-02-02T02:34:50.416Z,1.80
2019-02-02T02:37:20.780Z,1.90
2019-02-02T02:39:51.140Z,1.90
2019-02-02T02:44:51.098Z,1.90
2019-02-02T02:49:51.331Z,1.80
2019-02-02T02:54:51.265Z,1.80
2019-02-02T02:59:51.199Z,1.80
2019-02-02T03:07:20.708Z,1.70
2019-02-02T03:12:20.638Z,1.70
2019-02-02T03:17:20.624Z,1.60
2019-02-02T03:22:20.554Z,1.50
2019-02-02T03:27:20.532Z,1.60
2019-02-02T03:32:20.474Z,1.60
2019-02-02T03:34:50.852Z,1.60
2019-02-02T03:37:21.971Z,1.60
2019-02-02T03:39:52.301Z,1.60
2019-02-02T03:42:22.652Z,1.60
2019-02-02T03:44:52.973Z,1.60
2019-02-02T03:47:23.336Z,1.50
2019-02-02T03:52:23.264Z,1.50
2019-02-02T03:57:23.195Z,1.40
2019-02-02T03:59:53.523Z,1.50
2019-02-02T04:02:23.857Z,1.40
2019-02-02T04:07:33.984Z,1.50
2019-02-02T04:10:05.582Z,1.60
2019-02-02T04:15:06.338Z,1.60
2019-02-02T04:17:36.680Z,1.60
2019-02-02T04:20:09.512Z,1.50
2019-02-02T04:22:39.839Z,1.50
2019-02-02T04:25:10.592Z,1.50
2019-02-02T04:27:40.944Z,1.50
2019-02-02T04:30:14.540Z,1.60
2019-02-02T04:35:14.648Z,1.50
2019-02-02T04:40:15.102Z,1.50
2019-02-02T04:42:45.552Z,1.50
2019-02-02T04:47:45.912Z,1.60
2019-02-02T04:52:46.103Z,1.70
2019-02-02T04:57:46.656Z,1.70
2019-02-02T05:02:56.114Z,1.70
2019-02-02T05:10:25.792Z,1.70
2019-02-02T05:15:25.828Z,1.70
2019-02-02T05:17:56.159Z,1.70
2019-02-02T05:20:26.487Z,1.70
2019-02-02T05:22:56.800Z,1.70
2019-02-02T05:25:27.160Z,1.70
2019-02-02T05:27:57.484Z,1.70
2019-02-02T05:30:29.824Z,1.80
2019-02-02T05:33:00.143Z,1.80
2019-02-02T05:35:30.504Z,1.80
2019-02-02T05:40:30.483Z,1.80
2019-02-02T05:45:30.524Z,1.80
2019-02-02T05:48:00.860Z,1.80
2019-02-02T05:53:00.872Z,2.00
2019-02-02T05:55:31.319Z,1.90
2019-02-02T05:58:01.645Z,1.90
2019-02-02T06:00:50.196Z,1.90
2019-02-02T06:03:20.648Z,1.90
2019-02-02T06:05:51.007Z,1.90
2019-02-02T06:08:21.332Z,1.90
2019-02-02T06:10:51.695Z,1.90
2019-02-02T06:13:22.007Z,1.90
2019-02-02T06:15:52.369Z,1.90
2019-02-02T06:18:22.701Z,2.00
2019-02-02T06:20:53.028Z,2.00
2019-02-02T06:23:23.462Z,2.00
2019-02-02T06:25:53.829Z,2.00
2019-02-02T06:28:24.140Z,2.10
2019-02-02T06:30:54.476Z,2.00
2019-02-02T06:33:24.804Z,2.10
2019-02-02T06:35:55.152Z,2.00
2019-02-02T06:38:25.498Z,2.00
2019-02-02T06:43:25.434Z,2.00
2019-02-02T06:45:55.752Z,2.10
2019-02-02T06:48:26.104Z,2.10
2019-02-02T06:53:26.032Z,2.00
2019-02-02T06:55:56.340Z,2.00
2019-02-02T06:58:26.717Z,2.00
2019-02-02T07:03:26.640Z,2.00
2019-02-02T07:08:26.543Z,2.10
2019-02-02T07:13:26.481Z,2.10
2019-02-02T07:20:55.979Z,2.10
2019-02-02T07:23:26.324Z,2.20
2019-02-02T07:25:56.656Z,2.10
2019-02-02T07:30:56.584Z,2.00
2019-02-02T07:33:26.912Z,1.90
2019-02-02T07:35:57.247Z,1.90
2019-02-02T07:43:26.817Z,2.00
2019-02-02T07:45:57.176Z,2.00
2019-02-02T07:50:57.136Z,2.10
2019-02-02T07:55:57.075Z,2.10
2019-02-02T08:03:26.567Z,2.10
2019-02-02T08:05:56.929Z,2.20
2019-02-02T08:10:56.852Z,2.30
2019-02-02T08:13:27.192Z,2.40
2019-02-02T08:15:57.553Z,2.30
2019-02-02T08:20:57.505Z,2.40
2019-02-02T08:25:57.416Z,2.50
2019-02-02T08:30:57.351Z,2.60
2019-02-02T08:35:57.308Z,2.60
2019-02-02T08:38:27.662Z,2.60
2019-02-02T08:43:27.604Z,2.60
2019-02-02T08:50:57.252Z,2.70
2019-02-02T08:53:27.604Z,2.90
2019-02-02T09:01:04.579Z,3.30
2019-02-02T09:03:35.067Z,3.60
2019-02-02T09:08:35.100Z,4.20
2019-02-02T09:13:36.934Z,4.10
2019-02-02T09:18:36.612Z,3.90
2019-02-02T09:26:06.248Z,5.60
2019-02-02T09:28:36.766Z,4.80
2019-02-02T09:41:07.460Z,5.50
2019-02-02T09:43:39.610Z,5.70
2019-02-02T09:46:09.768Z,6.30
2019-02-02T09:56:09.028Z,5.80
2019-02-02T09:58:39.351Z,6.80
2019-02-02T10:01:09.695Z,6.70
2019-02-02T10:03:40.146Z,7.20
2019-02-02T10:08:40.088Z,7.50
2019-02-02T10:13:40.105Z,8.20
2019-02-02T10:18:40.088Z,8.10
2019-02-02T10:21:10.500Z,8.20
2019-02-02T10:31:09.680Z,8.70
2019-02-02T10:36:09.736Z,7.10
2019-02-02T10:38:40.079Z,7.20
2019-02-02T10:41:10.557Z,7.10
2019-02-02T10:46:10.926Z,6.70
2019-02-02T10:51:11.056Z,7.80
2019-02-02T11:06:09.827Z,9.90
2019-02-02T11:08:40.204Z,10.10
2019-02-02T11:11:10.554Z,9.20
2019-02-02T11:16:10.588Z,9.70
2019-02-02T11:26:09.891Z,9.00
2019-02-02T11:36:09.008Z,9.90
2019-02-02T11:41:09.014Z,10.80
2019-02-02T11:43:39.388Z,11.40
2019-02-02T11:46:09.741Z,12.70
2019-02-02T11:51:09.775Z,10.10
2019-02-02T11:58:39.586Z,11.00
2019-02-02T12:03:39.720Z,11.00
2019-02-02T12:06:10.053Z,11.20
2019-02-02T12:16:10.030Z,11.30
2019-02-02T12:18:40.525Z,10.30
2019-02-02T12:28:40.557Z,11.50
2019-02-02T12:53:37.164Z,10.90
2019-02-02T13:03:36.759Z,9.20
2019-02-02T13:23:34.979Z,12.00
2019-02-02T13:26:05.903Z,12.00
2019-02-02T13:31:05.949Z,10.30
2019-02-02T13:41:05.900Z,13.40
2019-02-02T13:46:06.330Z,13.30
2019-02-02T13:51:06.412Z,11.60
2019-02-02T13:53:36.845Z,9.40
2019-02-02T14:03:36.176Z,9.00
2019-02-02T14:16:04.921Z,9.20
2019-02-02T14:21:05.364Z,10.70
2019-02-02T14:38:33.484Z,8.10
2019-02-02T14:56:01.372Z,6.80
2019-02-02T15:18:28.492Z,5.40
2019-02-02T15:25:57.999Z,5.10
2019-02-02T15:30:57.931Z,5.10
2019-02-02T15:33:37.655Z,5.00
2019-02-02T15:36:00.235Z,5.10
2019-02-02T15:41:00.228Z,4.90
2019-02-02T15:48:29.784Z,4.90
2019-02-02T15:53:29.863Z,4.80
2019-02-02T15:56:00.188Z,4.70
2019-02-02T16:01:00.179Z,4.60
2019-02-02T16:13:28.855Z,4.10
2019-02-02T16:38:25.781Z,3.80
2019-02-02T16:55:55.356Z,3.40
2019-02-02T17:03:25.054Z,3.20
2019-02-02T17:10:54.668Z,2.90
2019-02-02T17:15:54.596Z,2.90
2019-02-02T17:25:53.800Z,2.90
2019-02-02T17:33:23.320Z,3.00
2019-02-02T17:35:53.692Z,3.10
2019-02-02T17:40:53.640Z,3.00
2019-02-02T17:45:53.548Z,2.80
2019-02-02T17:50:53.537Z,2.60
2019-02-02T17:55:53.469Z,2.70
2019-02-02T18:05:56.039Z,2.70
2019-02-02T18:10:56.136Z,2.70
2019-02-02T18:13:26.498Z,2.80
2019-02-02T18:18:26.476Z,2.90
2019-02-02T18:48:22.349Z,2.60
2019-02-02T18:50:52.784Z,2.50
2019-02-02T19:03:26.816Z,2.20
2019-02-02T19:10:56.436Z,1.80
2019-02-02T19:20:55.505Z,1.60
2019-02-02T19:30:56.876Z,2.40
2019-02-02T19:40:56.036Z,2.70
2019-02-02T19:45:55.964Z,2.60
2019-02-02T19:48:26.321Z,2.60
2019-02-02T20:25:51.150Z,3.50
2019-02-02T20:28:21.497Z,3.40
2019-02-02T20:30:51.843Z,3.50
2019-02-02T20:33:22.191Z,3.50
2019-02-02T20:38:22.170Z,3.40
2019-02-02T20:40:52.538Z,3.40
2019-02-02T20:43:22.859Z,3.40
2019-02-02T20:48:22.801Z,3.30
2019-02-02T20:50:53.132Z,3.30
2019-02-02T20:58:22.655Z,3.30
2019-02-02T21:00:53.133Z,3.20
2019-02-02T21:05:53.046Z,3.20
2019-02-02T21:08:23.427Z,3.20
2019-02-02T21:10:53.724Z,3.20
2019-02-02T21:13:24.052Z,3.30
2019-02-02T21:15:54.385Z,3.30
2019-02-02T21:18:24.920Z,3.30
2019-02-02T21:23:24.840Z,3.30
2019-02-02T21:25:55.191Z,3.20
2019-02-02T21:30:55.158Z,3.20
2019-02-02T21:33:25.605Z,3.20
2019-02-02T21:36:03.470Z,3.20
2019-02-02T21:48:26.456Z,2.90
2019-02-02T21:50:56.934Z,2.90
2019-02-02T21:55:56.896Z,2.90
2019-02-02T22:00:56.954Z,2.90
2019-02-02T22:03:27.283Z,2.80
2019-02-02T22:05:57.627Z,2.80
2019-02-02T22:08:28.059Z,2.70
2019-02-02T22:10:58.428Z,2.60
2019-02-02T22:13:28.779Z,2.50
2019-02-02T22:15:59.092Z,2.40
2019-02-02T22:20:59.128Z,2.40
2019-02-02T22:30:58.200Z,2.10
2019-02-02T22:33:28.635Z,2.00
2019-02-02T22:35:59.000Z,2.10
2019-02-02T22:40:59.432Z,1.90
2019-02-02T22:43:29.782Z,2.00
2019-02-02T22:46:00.336Z,2.00
2019-02-02T22:48:30.659Z,2.10
2019-02-02T22:51:00.994Z,2.10
2019-02-02T22:58:30.713Z,2.10
2019-02-02T23:01:26.243Z,2.20
2019-02-02T23:04:26.793Z,2.30
2019-02-02T23:07:37.150Z,2.30
2019-02-02T23:11:12.552Z,2.20
2019-02-02T23:14:25.759Z,2.00
2019-02-02T23:16:56.095Z,1.90
2019-02-02T23:21:56.056Z,1.80
2019-02-02T23:24:26.384Z,1.70
2019-02-02T23:26:56.754Z,1.60
2019-02-02T23:29:27.220Z,1.50
2019-02-02T23:31:57.587Z,1.40
2019-02-02T23:36:57.711Z,1.20
2019-02-02T23:39:28.021Z,1.20
2019-02-02T23:41:58.479Z,1.30
2019-02-02T23:44:28.817Z,1.30
2019-02-02T23:46:59.152Z,1.30
2019-02-02T23:49:29.468Z,1.30
2019-02-02T23:51:59.819Z,1.30
2019-02-02T23:54:30.176Z,1.10
